createdAt,value
2023-04-16T00:00:38.327Z,1.43
2023-04-16T00:11:00.684Z,1.38
2023-04-16T00:21:03.131Z,1.24
2023-04-16T00:31:05.672Z,0.94
2023-04-16T00:41:07.959Z,0.71
2023-04-16T00:51:10.885Z,0.65
2023-04-16T01:01:14.697Z,0.51
2023-04-16T01:11:17.125Z,0.43
2023-04-16T01:21:19.404Z,0.48
2023-04-16T01:31:21.706Z,0.35
2023-04-16T01:41:24.014Z,0.24
2023-04-16T01:51:27.418Z,0.16
2023-04-16T02:01:29.897Z,-0.04
2023-04-16T02:11:32.213Z,0.09
2023-04-16T02:21:34.544Z,0.01
2023-04-16T02:31:37.411Z,-0.19
2023-04-16T05:52:24.489Z,0.46
2023-04-16T06:02:27.042Z,1.83
2023-04-16T06:12:29.501Z,3.01
2023-04-16T06:22:31.833Z,4.24
2023-04-16T06:32:34.200Z,5.58
2023-04-16T06:42:36.791Z,6.43
2023-04-16T06:52:39.070Z,8.72
2023-04-16T07:02:41.481Z,9.37
2023-04-16T07:12:44.002Z,10.20
2023-04-16T07:22:46.459Z,11.01
2023-04-16T07:32:48.848Z,12.73
2023-04-16T07:42:51.359Z,15.37
2023-04-16T07:52:53.778Z,16.53
2023-04-16T08:02:56.294Z,17.95
2023-04-16T08:13:01.157Z,17.89
2023-04-16T08:23:03.458Z,19.40
2023-04-16T08:33:06.140Z,16.91
2023-04-16T08:43:14.039Z,15.12
2023-04-16T08:53:19.548Z,14.61
2023-04-16T09:03:22.533Z,14.34
2023-04-16T09:13:25.679Z,14.38
2023-04-16T09:23:28.480Z,14.10
2023-04-16T09:33:31.288Z,15.08
2023-04-16T09:43:35.844Z,14.67
2023-04-16T09:53:38.156Z,14.98
2023-04-16T10:03:41.200Z,15.26
2023-04-16T10:13:44.013Z,15.26
2023-04-16T10:23:46.687Z,15.59
2023-04-16T10:33:49.622Z,15.61
2023-04-16T10:43:52.022Z,15.73
2023-04-16T10:53:56.495Z,15.13
2023-04-16T11:04:02.277Z,14.73
2023-04-16T11:14:05.042Z,15.32
2023-04-16T11:24:12.808Z,14.94
2023-04-16T11:34:16.998Z,14.32
2023-04-16T11:44:23.433Z,13.75
2023-04-16T11:54:25.962Z,13.03
2023-04-16T12:04:29.625Z,12.26
2023-04-16T12:14:32.674Z,10.38
2023-04-16T12:24:37.125Z,9.59
2023-04-16T12:34:51.573Z,9.28
2023-04-16T12:44:53.908Z,9.17
2023-04-16T12:54:56.340Z,8.86
2023-04-16T13:04:58.711Z,8.75
2023-04-16T13:15:01.092Z,8.78
2023-04-16T13:25:03.483Z,8.94
2023-04-16T13:35:06.328Z,8.91
2023-04-16T13:45:09.748Z,9.04
2023-04-16T13:55:14.279Z,9.25
2023-04-16T14:05:16.750Z,9.30
2023-04-16T14:15:19.175Z,9.47
2023-04-16T14:25:21.522Z,9.63
2023-04-16T14:35:24.095Z,9.95
2023-04-16T14:45:27.390Z,10.14
2023-04-16T14:55:29.794Z,10.52
2023-04-16T15:05:32.233Z,10.58
2023-04-16T15:15:34.744Z,10.59
2023-04-16T15:25:37.172Z,10.64
2023-04-16T15:35:41.420Z,10.48
2023-04-16T15:45:43.836Z,10.37
2023-04-16T15:55:46.394Z,10.08
2023-04-16T16:05:48.886Z,9.96
2023-04-16T16:15:51.540Z,9.90
2023-04-16T16:25:53.922Z,9.64
2023-04-16T16:35:56.326Z,9.48
2023-04-16T16:45:58.821Z,9.38
2023-04-16T16:56:01.177Z,9.33
2023-04-16T17:06:04.015Z,9.21
2023-04-16T17:16:06.778Z,8.80
2023-04-16T17:26:09.316Z,8.35
2023-04-16T17:36:11.740Z,7.96
2023-04-16T17:46:14.106Z,7.49
2023-04-16T17:56:16.637Z,6.97
2023-04-16T18:06:20.081Z,6.61
2023-04-16T18:16:23.027Z,6.62
2023-04-16T18:26:25.520Z,6.74
2023-04-16T18:36:27.981Z,6.97
2023-04-16T18:46:30.435Z,6.94
2023-04-16T18:56:33.120Z,6.74
2023-04-16T19:06:35.741Z,6.79
2023-04-16T19:16:39.308Z,6.75
2023-04-16T19:26:41.925Z,6.52
2023-04-16T19:36:45.407Z,6.49
2023-04-16T19:46:47.766Z,5.89
2023-04-16T19:56:52.021Z,5.56
2023-04-16T20:06:54.395Z,5.37
2023-04-16T20:16:56.768Z,5.34
2023-04-16T20:26:59.194Z,5.27
2023-04-16T20:40:11.473Z,4.92
2023-04-16T20:50:14.037Z,4.51
2023-04-16T21:00:17.076Z,4.11
2023-04-16T21:10:20.511Z,3.75
2023-04-16T21:20:23.017Z,3.42
2023-04-16T21:30:25.345Z,3.20
2023-04-16T21:40:27.723Z,2.91
2023-04-16T21:50:30.122Z,2.75
2023-04-16T22:00:33.339Z,2.55
2023-04-16T22:10:36.434Z,2.42
2023-04-16T22:20:39.409Z,2.10
2023-04-16T22:30:41.788Z,1.90
2023-04-16T22:40:46.960Z,1.75
2023-04-16T22:50:51.160Z,1.75
2023-04-16T23:00:54.002Z,1.75
2023-04-16T23:10:56.272Z,1.70
2023-04-16T23:20:58.534Z,1.62
2023-04-16T23:31:01.010Z,1.51
2023-04-16T23:41:03.346Z,1.40
2023-04-16T23:51:05.896Z,1.20
